| time (UTC) | temp C | wind direction | speed KPH | gust KPH | rain 1hr cm | rain 24hr cm | rain mn cm | humidity % | barometer mb |
| 20260902234653 | 30 | 186 | 3.2 | 14.5 | 0.00 | 0.00 | 0.00 | 67 | 1012.3 |
| 20260902233652 | 30 | 171 | 0.0 | 6.4 | 0.00 | 0.00 | 0.00 | 67 | 1012.3 |
| 20260902232652 | 30 | 190 | 0.0 | 3.2 | 0.00 | 0.00 | 0.00 | 67 | 1012.2 |
| 20260902231652 | 30 | 185 | 0.0 | 6.4 | 0.00 | 0.00 | 0.00 | 66 | 1012.3 |
| 20260902230650 | 30 | 180 | 3.2 | 11.3 | 0.00 | 0.00 | 0.00 | 66 | 1012.4 |
| 20260902225658 | 31 | 182 | 3.2 | 14.5 | 0.00 | 0.00 | 0.00 | 65 | 1012.4 |
| 20260902224651 | 31 | 227 | 3.2 | 6.4 | 0.00 | 0.00 | 0.00 | 64 | 1012.4 |
| 20260902223650 | 31 | 206 | 6.4 | 19.3 | 0.00 | 0.00 | 0.00 | 63 | 1012.1 |
| 20260902222649 | 31 | 200 | 6.4 | 19.3 | 0.00 | 0.00 | 0.00 | 61 | 1011.8 |
| 20260902221651 | 32 | 238 | 3.2 | 25.7 | 0.00 | 0.00 | 0.00 | 62 | 1011.8 |
| 20260902220649 | 31 | 334 | 3.2 | 14.5 | 0.00 | 0.00 | 0.00 | 62 | 1011.8 |
| 20260902215645 | 32 | 180 | 3.2 | 11.3 | 0.00 | 0.00 | 0.00 | 61 | 1011.9 |
| 20260902214648 | 32 | 159 | 3.2 | 8.0 | 0.00 | 0.00 | 0.00 | 60 | 1011.7 |
| 20260902213650 | 32 | 175 | 6.4 | 17.7 | 0.00 | 0.00 | 0.00 | 59 | 1011.7 |
| 20260902212642 | 32 | 140 | 6.4 | 22.5 | 0.00 | 0.00 | 0.00 | 57 | 1011.8 |
| 20260902211645 | 32 | 252 | 6.4 | 25.7 | 0.00 | 0.00 | 0.00 | 59 | 1011.9 |
| 20260902210641 | 32 | 169 | 6.4 | 32.2 | 0.00 | 0.00 | 0.00 | 59 | 1012.1 |
| 20260902205640 | 31 | 154 | 3.2 | 11.3 | 0.00 | 0.00 | 0.00 | 60 | 1012.2 |
| 20260902204643 | 32 | 229 | 6.4 | 22.5 | 0.00 | 0.00 | 0.00 | 58 | 1012.3 |
| 20260902203641 | 32 | 171 | 8.0 | 37.0 | 0.00 | 0.00 | 0.00 | 58 | 1012.3 |
| 20260902202640 | 32 | 144 | 6.4 | 25.7 | 0.00 | 0.00 | 0.00 | 57 | 1012.3 |
| 20260902201640 | 32 | 260 | 3.2 | 17.7 | 0.00 | 0.00 | 0.00 | 59 | 1012.5 |
| 20260902200648 | 32 | 224 | 6.4 | 14.5 | 0.00 | 0.00 | 0.00 | 58 | 1012.7 |
| 20260902195640 | 32 | 198 | 6.4 | 22.5 | 0.00 | 0.00 | 0.00 | 56 | 1012.7 |
| 20260902194636 | 33 | 206 | 3.2 | 19.3 | 0.00 | 0.00 | 0.00 | 59 | 1012.8 |
| 20260902193632 | 33 | 355 | 3.2 | 19.3 | 0.00 | 0.00 | 0.00 | 58 | 1012.9 |
| 20260902192633 | 32 | 271 | 6.4 | 17.7 | 0.00 | 0.00 | 0.00 | 57 | 1013.1 |
| 20260902191634 | 33 | 355 | 6.4 | 14.5 | 0.00 | 0.00 | 0.00 | 54 | 1013.3 |
| 20260902190631 | 32 | 169 | 6.4 | 17.7 | 0.00 | 0.00 | 0.00 | 55 | 1013.3 |
| 20260902185635 | 33 | 333 | 3.2 | 14.5 | 0.00 | 0.00 | 0.00 | 57 | 1013.3 |
| 20260902184634 | 33 | 261 | 6.4 | 14.5 | 0.00 | 0.00 | 0.00 | 57 | 1013.3 |
| 20260902183633 | 33 | 225 | 3.2 | 17.7 | 0.00 | 0.00 | 0.00 | 58 | 1013.3 |
| 20260902182629 | 32 | 311 | 3.2 | 22.5 | 0.00 | 0.00 | 0.00 | 61 | 1013.3 |
| 20260902181628 | 32 | 203 | 6.4 | 22.5 | 0.00 | 0.00 | 0.00 | 60 | 1013.4 |
| 20260902180630 | 32 | 265 | 3.2 | 14.5 | 0.00 | 0.00 | 0.00 | 61 | 1013.3 |
| 20260902175628 | 32 | 196 | 8.0 | 25.7 | 0.00 | 0.00 | 0.00 | 62 | 1013.3 |
| 20260902174628 | 32 | 244 | 6.4 | 17.7 | 0.00 | 0.00 | 0.00 | 63 | 1013.6 |
| 20260902173625 | 31 | 161 | 3.2 | 11.3 | 0.00 | 0.00 | 0.00 | 66 | 1013.8 |
| 20260902172625 | 31 | 310 | 6.4 | 14.5 | 0.00 | 0.00 | 0.00 | 63 | 1013.9 |
| 20260902171623 | 31 | 275 | 6.4 | 14.5 | 0.00 | 0.00 | 0.00 | 64 | 1014.2 |
| 20260902170630 | 31 | 247 | 3.2 | 17.7 | 0.00 | 0.00 | 0.00 | 67 | 1014.4 |
| 20260902165621 | 31 | 300 | 6.4 | 11.3 | 0.00 | 0.00 | 0.00 | 69 | 1014.4 |
| 20260902164621 | 31 | 283 | 3.2 | 6.4 | 0.00 | 0.00 | 0.00 | 69 | 1014.5 |
| 20260902163621 | 31 | 341 | 6.4 | 11.3 | 0.00 | 0.00 | 0.00 | 68 | 1014.7 |
| 20260902162622 | 31 | 184 | 6.4 | 17.7 | 0.00 | 0.00 | 0.00 | 70 | 1014.7 |
| 20260902161625 | 31 | 334 | 6.4 | 22.5 | 0.00 | 0.00 | 0.00 | 68 | 1014.7 |
| 20260902160622 | 30 | 344 | 6.4 | 25.7 | 0.00 | 0.00 | 0.00 | 67 | 1014.6 |
| 20260902155622 | 31 | 227 | 3.2 | 14.5 | 0.00 | 0.00 | 0.00 | 67 | 1014.6 |
| 20260902154624 | 31 | 250 | 3.2 | 14.5 | 0.00 | 0.00 | 0.00 | 68 | 1014.4 |
| 20260902153619 | 31 | 177 | 6.4 | 17.7 | 0.00 | 0.00 | 0.00 | 69 | 1014.3 |
| 20260902152619 | 30 | 269 | 3.2 | 14.5 | 0.00 | 0.00 | 0.00 | 71 | 1014.3 |
| 20260902151624 | 30 | 323 | 3.2 | 11.3 | 0.00 | 0.00 | 0.00 | 71 | 1014.3 |
| 20260902150618 | 30 | 313 | 3.2 | 14.5 | 0.00 | 0.00 | 0.00 | 71 | 1014.3 |
| 20260902145616 | 29 | 240 | 3.2 | 11.3 | 0.00 | 0.00 | 0.00 | 74 | 1014.3 |
| 20260902144620 | 29 | 233 | 3.2 | 14.5 | 0.00 | 0.00 | 0.00 | 75 | 1014.3 |
| 20260902143621 | 28 | 254 | 0.0 | 14.5 | 0.00 | 0.00 | 0.00 | 77 | 1014.2 |
| 20260902142618 | 28 | 200 | 0.0 | 6.4 | 0.00 | 0.00 | 0.00 | 79 | 1014.3 |
| 20260902141622 | 28 | 188 | 0.0 | 14.5 | 0.00 | 0.00 | 0.00 | 81 | 1014.2 |
| 20260902140618 | 27 | 186 | 0.0 | 6.4 | 0.00 | 0.00 | 0.00 | 83 | 1014.3 |
| 20260902135614 | 27 | 188 | 3.2 | 11.3 | 0.00 | 0.00 | 0.00 | 83 | 1014.2 |
| 20260902134612 | 26 | 193 | 3.2 | 14.5 | 0.00 | 0.00 | 0.00 | 85 | 1014.3 |
| 20260902133612 | 26 | 175 | 3.2 | 11.3 | 0.00 | 0.00 | 0.00 | 87 | 1014.4 |
| 20260902132614 | 26 | 173 | 0.0 | 8.0 | 0.00 | 0.00 | 0.00 | 89 | 1014.5 |
| 20260902131614 | 25 | 225 | 3.2 | 14.5 | 0.00 | 0.00 | 0.00 | 90 | 1014.4 |
| 20260902130614 | 25 | 171 | 3.2 | 14.5 | 0.00 | 0.00 | 0.00 | 91 | 1014.4 |
| 20260902125618 | 25 | 176 | 3.2 | 11.3 | 0.00 | 0.00 | 0.00 | 92 | 1014.4 |
| 20260902124610 | 25 | 174 | 3.2 | 14.5 | 0.00 | 0.00 | 0.00 | 92 | 1014.4 |
| 20260902123607 | 24 | 165 | 0.0 | 8.0 | 0.00 | 0.00 | 0.00 | 93 | 1014.5 |
| 20260902122607 | 24 | 212 | 0.0 | 0.0 | 0.00 | 0.00 | 0.00 | 93 | 1014.4 |
| 20260902121607 | 24 | 188 | 0.0 | 3.2 | 0.00 | 0.00 | 0.00 | 92 | 1014.4 |
| 20260902120608 | 24 | 178 | 0.0 | 6.4 | 0.00 | 0.00 | 0.00 | 92 | 1014.4 |
| 20260902115608 | 24 | 274 | 0.0 | 6.4 | 0.00 | 0.00 | 0.00 | 92 | 1014.3 |
| 20260902114608 | 24 | 173 | 3.2 | 14.5 | 0.00 | 0.00 | 0.00 | 92 | 1014.2 |
| 20260902113608 | 24 | 160 | 0.0 | 11.3 | 0.00 | 0.00 | 0.00 | 92 | 1014.2 |
| 20260902112629 | 24 | 148 | 0.0 | 3.2 | 0.00 | 0.00 | 0.00 | 92 | 1014.1 |
| 20260902111604 | 24 | 170 | 0.0 | 6.4 | 0.00 | 0.00 | 0.00 | 92 | 1014.0 |
| 20260902110605 | 24 | 178 | 0.0 | 8.0 | 0.00 | 0.00 | 0.00 | 93 | 1014.1 |
| 20260902105601 | 24 | 315 | 3.2 | 11.3 | 0.00 | 0.00 | 0.00 | 93 | 1014.4 |
| 20260902104603 | 24 | 326 | 3.2 | 14.5 | 0.00 | 0.00 | 0.00 | 93 | 1014.7 |
| 20260902103602 | 24 | 304 | 0.0 | 8.0 | 0.00 | 0.00 | 0.00 | 93 | 1014.6 |
| 20260902102601 | 24 | 277 | 0.0 | 11.3 | 0.00 | 0.00 | 0.00 | 92 | 1014.4 |
| 20260902101602 | 24 | 323 | 0.0 | 6.4 | 0.00 | 0.00 | 0.00 | 92 | 1014.4 |
| 20260902100605 | 24 | 234 | 0.0 | 3.2 | 0.00 | 0.00 | 0.00 | 92 | 1014.0 |
| 20260902095604 | 24 | 236 | 0.0 | 3.2 | 0.00 | 0.00 | 0.00 | 92 | 1013.9 |
| 20260902094600 | 24 | 236 | 0.0 | 3.2 | 0.00 | 0.00 | 0.00 | 92 | 1014.0 |
| 20260902093558 | 24 | 236 | 0.0 | 3.2 | 0.00 | 0.00 | 0.00 | 92 | 1014.1 |
| 20260902092558 | 24 | 236 | 0.0 | 3.2 | 0.00 | 0.00 | 0.00 | 92 | 1014.2 |
| 20260902091600 | 24 | 236 | 0.0 | 3.2 | 0.00 | 0.00 | 0.00 | 92 | 1014.2 |
| 20260902090558 | 24 | 181 | 0.0 | 3.2 | 0.00 | 0.00 | 0.00 | 92 | 1014.2 |
| 20260902085600 | 24 | 184 | 0.0 | 3.2 | 0.00 | 0.00 | 0.00 | 92 | 1014.1 |
| 20260902084559 | 24 | 178 | 0.0 | 3.2 | 0.00 | 0.00 | 0.00 | 92 | 1013.9 |
| 20260902083600 | 24 | 178 | 0.0 | 14.5 | 0.00 | 0.00 | 0.00 | 92 | 1013.9 |
| 20260902082600 | 23 | 171 | 0.0 | 6.4 | 0.00 | 0.00 | 0.00 | 92 | 1013.9 |
| 20260902081557 | 23 | 188 | 0.0 | 6.4 | 0.00 | 0.00 | 0.00 | 91 | 1013.9 |
| 20260902080600 | 23 | 188 | 0.0 | 0.0 | 0.00 | 0.00 | 0.00 | 91 | 1014.0 |
| 20260902075556 | 23 | 163 | 0.0 | 0.0 | 0.00 | 0.00 | 0.00 | 91 | 1014.1 |
| 20260902074552 | 23 | 163 | 0.0 | 0.0 | 0.00 | 0.00 | 0.00 | 90 | 1014.1 |
| 20260902073556 | 23 | 163 | 0.0 | 0.0 | 0.00 | 0.00 | 0.00 | 90 | 1013.9 |
| 20260902072554 | 23 | 163 | 0.0 | 0.0 | 0.00 | 0.00 | 0.00 | 90 | 1013.7 |
| 20260902071554 | 23 | 163 | 0.0 | 0.0 | 0.00 | 0.00 | 0.00 | 90 | 1013.8 |
| 20260902070552 | 23 | 163 | 0.0 | 0.0 | 0.00 | 0.00 | 0.00 | 89 | 1013.9 |
| 20260902065554 | 23 | 163 | 0.0 | 0.0 | 0.00 | 0.00 | 0.00 | 89 | 1013.8 |
| 20260902064551 | 23 | 163 | 0.0 | 0.0 | 0.00 | 0.00 | 0.00 | 89 | 1013.8 |
| 20260902063552 | 24 | 163 | 0.0 | 0.0 | 0.00 | 0.00 | 0.00 | 89 | 1013.9 |
| 20260902062550 | 24 | 163 | 0.0 | 0.0 | 0.00 | 0.00 | 0.00 | 89 | 1014.2 |
| 20260902061551 | 24 | 163 | 0.0 | 0.0 | 0.00 | 0.00 | 0.00 | 89 | 1014.2 |
| 20260902060551 | 24 | 163 | 0.0 | 0.0 | 0.00 | 0.00 | 0.00 | 89 | 1014.3 |
| 20260902055556 | 24 | 163 | 0.0 | 3.2 | 0.00 | 0.00 | 0.00 | 88 | 1014.4 |
| 20260902054553 | 24 | 163 | 0.0 | 0.0 | 0.00 | 0.00 | 0.00 | 88 | 1014.5 |
| 20260902053553 | 24 | 163 | 0.0 | 0.0 | 0.00 | 0.00 | 0.00 | 88 | 1014.6 |
| 20260902052547 | 24 | 163 | 0.0 | 0.0 | 0.00 | 0.00 | 0.00 | 88 | 1014.6 |
| 20260902051544 | 24 | 163 | 0.0 | 3.2 | 0.00 | 0.00 | 0.00 | 88 | 1014.6 |
| 20260902050546 | 25 | 163 | 0.0 | 6.4 | 0.00 | 0.00 | 0.00 | 88 | 1014.7 |
| 20260902045545 | 25 | 187 | 0.0 | 0.0 | 0.00 | 0.00 | 0.00 | 87 | 1014.7 |
| 20260902044547 | 25 | 187 | 0.0 | 0.0 | 0.00 | 0.00 | 0.00 | 87 | 1014.7 |
| 20260902043544 | 25 | 180 | 0.0 | 0.0 | 0.00 | 0.00 | 0.00 | 86 | 1014.6 |
| 20260902042543 | 25 | 180 | 0.0 | 0.0 | 0.00 | 0.00 | 0.00 | 86 | 1014.5 |
| 20260902041546 | 25 | 180 | 0.0 | 0.0 | 0.00 | 0.00 | 0.00 | 86 | 1014.5 |
| 20260902040545 | 25 | 180 | 0.0 | 0.0 | 0.00 | 0.00 | 0.00 | 86 | 1014.4 |
| 20260902035537 | 25 | 180 | 0.0 | 0.0 | 0.00 | 0.00 | 0.00 | 85 | 1014.5 |
| 20260902034539 | 25 | 180 | 0.0 | 0.0 | 0.00 | 0.00 | 0.00 | 85 | 1014.5 |
| 20260902033537 | 25 | 180 | 0.0 | 0.0 | 0.00 | 0.00 | 0.00 | 85 | 1014.4 |
| 20260902032542 | 26 | 180 | 0.0 | 0.0 | 0.00 | 0.00 | 0.00 | 85 | 1014.4 |
| 20260902031538 | 26 | 180 | 0.0 | 0.0 | 0.00 | 0.00 | 0.00 | 85 | 1014.4 |
| 20260902030541 | 26 | 180 | 0.0 | 0.0 | 0.00 | 0.00 | 0.00 | 84 | 1014.2 |
| 20260902025538 | 26 | 180 | 0.0 | 0.0 | 0.00 | 0.00 | 0.00 | 84 | 1014.1 |
| 20260902024540 | 26 | 180 | 0.0 | 0.0 | 0.00 | 0.00 | 0.00 | 84 | 1014.1 |
| 20260902023536 | 26 | 174 | 0.0 | 0.0 | 0.00 | 0.00 | 0.00 | 83 | 1014.2 |
| 20260902022541 | 27 | 174 | 0.0 | 0.0 | 0.00 | 0.00 | 0.00 | 83 | 1014.2 |
| 20260902021556 | 27 | 174 | 0.0 | 0.0 | 0.00 | 0.00 | 0.00 | 83 | 1014.0 |
| 20260902020547 | 27 | 174 | 0.0 | 0.0 | 0.00 | 0.00 | 0.00 | 82 | 1014.1 |
| 20260902015531 | 27 | 174 | 0.0 | 6.4 | 0.00 | 0.00 | 0.00 | 82 | 1014.2 |
| 20260902014532 | 27 | 195 | 0.0 | 6.4 | 0.00 | 0.00 | 0.00 | 82 | 1014.3 |
| 20260902013533 | 27 | 174 | 0.0 | 6.4 | 0.00 | 0.00 | 0.00 | 82 | 1014.3 |
| 20260902012533 | 27 | 316 | 0.0 | 8.0 | 0.00 | 0.00 | 0.00 | 82 | 1014.2 |
| 20260902011532 | 28 | 187 | 0.0 | 3.2 | 0.00 | 0.00 | 0.00 | 81 | 1014.2 |
| 20260902010530 | 28 | 189 | 0.0 | 8.0 | 0.00 | 0.00 | 0.00 | 81 | 1014.0 |
| 20260902005530 | 28 | 179 | 0.0 | 11.3 | 0.00 | 0.00 | 0.00 | 81 | 1014.0 |
| 20260902004532 | 28 | 177 | 0.0 | 11.3 | 0.00 | 0.00 | 0.00 | 80 | 1013.8 |
| 20260902003524 | 28 | 232 | 0.0 | 11.3 | 0.00 | 0.00 | 0.00 | 79 | 1013.7 |
| 20260902002525 | 28 | 173 | 0.0 | 0.0 | 0.00 | 0.00 | 0.00 | 79 | 1013.7 |
| 20260902001526 | 28 | 173 | 0.0 | 0.0 | 0.00 | 0.00 | 0.00 | 79 | 1013.6 |
| 20260902000523 | 28 | 173 | 0.0 | 0.0 | 0.00 | 0.00 | 0.00 | 78 | 1013.7 |
| 20260901235523 | 28 | 173 | 0.0 | 0.0 | 0.00 | 0.00 | 0.00 | 78 | 1013.8 |